Time;durP1;ratioP1;P1;durP2;ratioP2;P2;SDS_P1;SDS_P2;PMS_P1;PMS_P2;Temp;Humidity;BMP_temperature;BMP_pressure;BME280_temperature;BME280_humidity;BME280_pressure;Samples;Min_cycle;Max_cycle;Signal;HPM_P1;HPM_P2
2023/11/02 00:00:45;;;;;;;;;2.00;2.00;;;;;-143.90;100.00;75221.84;4994246;28;101558;-76
2023/11/02 00:03:30;;;;;;;;;3.25;3.25;;;;;-143.90;100.00;75221.84;4970348;27;102621;-74
2023/11/02 00:06:13;;;;;;;;;3.00;2.50;;;;;-143.90;100.00;75232.19;4981123;28;101678;-75
2023/11/02 00:08:39;;;;;;;;;7.00;6.00;;;;;-143.90;100.00;75238.38;4988566;28;107957;-74
2023/11/02 00:11:26;;;;;;;;;8.00;8.00;;;;;-143.90;100.00;75250.78;4996605;28;102789;-75
2023/11/02 00:13:53;;;;;;;;;14.50;13.00;;;;;-143.90;100.00;75259.06;4994910;28;104730;-76
2023/11/02 00:16:19;;;;;;;;;21.50;17.00;;;;;-143.90;100.00;75271.47;4996523;27;102189;-75
2023/11/02 00:18:47;;;;;;;;;17.50;13.25;;;;;-143.90;100.00;75259.06;4994213;27;103374;-75
2023/11/02 00:21:26;;;;;;;;;13.50;11.50;;;;;-143.90;100.00;75250.78;4997579;28;101646;-75
2023/11/02 00:23:52;;;;;;;;;10.00;10.00;;;;;-143.90;100.00;75244.59;4994043;27;101765;-74
2023/11/02 00:26:19;;;;;;;;;7.00;6.00;;;;;-143.90;100.00;75250.78;4994876;27;102988;-75
2023/11/02 00:28:48;;;;;;;;;5.00;3.00;;;;;-143.90;100.00;75244.59;4996041;27;103412;-75
2023/11/02 00:31:14;;;;;;;;;4.50;3.50;;;;;-143.90;100.00;75242.50;4988396;27;101580;-75
2023/11/02 00:33:41;;;;;;;;;5.00;2.25;;;;;-143.90;100.00;75230.09;4991394;28;101807;-76
2023/11/02 00:36:11;;;;;;;;;2.00;2.00;;;;;-143.90;100.00;75211.50;5000448;27;102099;-72
2023/11/02 00:38:37;;;;;;;;;2.00;2.00;;;;;-143.90;100.00;75188.75;4999913;27;103512;-76
2023/11/02 00:41:04;;;;;;;;;2.00;2.00;;;;;-143.90;100.00;75174.28;4989499;27;101785;-75
2023/11/02 00:43:31;;;;;;;;;5.00;5.00;;;;;-143.90;100.00;75153.63;4976971;28;101611;-76
2023/11/02 00:45:58;;;;;;;;;14.50;7.50;;;;;-143.90;100.00;75126.75;4996202;27;102234;-75
2023/11/02 00:48:32;;;;;;;;;8.00;7.50;;;;;-143.90;100.00;75110.19;4991615;28;103384;-75
2023/11/02 00:51:23;;;;;;;;;5.25;4.75;;;;;-143.90;100.00;75095.72;4990464;27;102100;-75
2023/11/02 00:53:54;;;;;;;;;7.00;4.75;;;;;-143.90;100.00;75077.13;4994080;27;101712;-75
2023/11/02 00:56:24;;;;;;;;;7.75;7.00;;;;;-143.90;100.00;75081.25;4991861;28;101947;-75
2023/11/02 00:58:53;;;;;;;;;8.50;7.75;;;;;-143.90;100.00;75068.84;4989943;28;102844;-75
2023/11/02 01:01:22;;;;;;;;;10.00;7.00;;;;;-143.90;100.00;75060.59;5000850;28;101692;-76
2023/11/02 01:03:55;;;;;;;;;6.50;4.00;;;;;-143.90;100.00;75052.31;4990586;28;101715;-75
2023/11/02 01:06:26;;;;;;;;;8.00;6.75;;;;;-143.90;100.00;75050.25;4991005;28;105006;-74
2023/11/02 01:08:57;;;;;;;;;4.50;4.25;;;;;-143.90;100.00;75046.09;4993051;28;103559;-75
2023/11/02 01:11:30;;;;;;;;;6.00;5.00;;;;;-143.90;100.00;75037.84;4994749;28;101734;-75
2023/11/02 01:13:57;;;;;;;;;3.50;3.00;;;;;-143.90;100.00;75031.63;4987375;27;102097;-76
2023/11/02 01:16:26;;;;;;;;;7.00;6.75;;;;;-143.90;100.00;75031.63;4991683;28;102956;-75
2023/11/02 01:18:56;;;;;;;;;6.00;4.00;;;;;-143.90;100.00;75013.03;4996821;28;103424;-75
2023/11/02 01:21:23;;;;;;;;;3.50;3.00;;;;;-143.90;100.00;75013.03;4993994;28;102821;-76
2023/11/02 01:24:04;;;;;;;;;6.00;4.00;;;;;-143.90;100.00;75006.84;4990380;28;101725;-75
2023/11/02 01:27:04;;;;;;;;;7.00;5.50;;;;;-143.90;100.00;75000.63;4995201;28;103429;-74
2023/11/02 01:29:31;;;;;;;;;5.50;4.50;;;;;-143.90;100.00;74996.50;4949151;28;107750;-74
2023/11/02 01:31:58;;;;;;;;;3.75;3.75;;;;;-143.90;100.00;74992.38;4988980;28;103178;-75
2023/11/02 01:34:26;;;;;;;;;6.00;4.00;;;;;-143.90;100.00;74992.38;4994267;28;103252;-76
2023/11/02 01:36:54;;;;;;;;;4.00;3.00;;;;;-143.90;100.00;74977.88;4998640;27;102030;-76
2023/11/02 01:39:21;;;;;;;;;6.50;4.00;;;;;-143.90;100.00;74977.88;4988174;28;103531;-75
2023/11/02 01:41:55;;;;;;;;;6.25;5.00;;;;;-143.90;100.00;74977.88;4977541;27;101903;-74
2023/11/02 01:44:31;;;;;;;;;5.50;3.50;;;;;-143.90;100.00;74961.34;4992427;27;101887;-75
2023/11/02 01:47:10;;;;;;;;;3.00;2.25;;;;;-143.90;100.00;74965.50;4990024;27;101896;-75
2023/11/02 01:49:40;;;;;;;;;3.25;2.00;;;;;-143.90;100.00;74959.28;4976246;28;108242;-76
2023/11/02 01:52:46;;;;;;;;;1.50;1.00;;;;;-143.90;100.00;74957.22;4994375;27;101913;-75
2023/11/02 01:55:40;;;;;;;;;1.00;1.00;;;;;-143.90;100.00;74948.94;4987734;28;102068;-75
2023/11/02 01:58:14;;;;;;;;;1.75;1.00;;;;;-143.90;100.00;74951.00;4999288;27;101759;-76
2023/11/02 02:00:52;;;;;;;;;2.00;1.00;;;;;-143.90;100.00;74951.00;4994181;28;108061;-74
2023/11/02 02:03:32;;;;;;;;;1.00;1.00;;;;;-143.90;100.00;74955.16;4989398;28;101549;-74
2023/11/02 02:06:10;;;;;;;;;1.00;0.50;;;;;-143.90;100.00;74951.00;4999467;27;101771;-75
2023/11/02 02:09:01;;;;;;;;;1.00;0.00;;;;;-143.90;100.00;74946.88;4997034;27;101899;-75
2023/11/02 02:11:53;;;;;;;;;3.00;2.00;;;;;-143.90;100.00;74944.81;4986409;28;108131;-75
2023/11/02 02:14:26;;;;;;;;;2.25;2.00;;;;;-143.90;100.00;74938.59;4988706;27;101411;-75
2023/11/02 02:17:15;;;;;;;;;1.75;1.75;;;;;-143.90;100.00;74940.69;4995839;28;102727;-75
2023/11/02 02:20:08;;;;;;;;;3.00;1.25;;;;;-143.90;100.00;74940.69;4989117;28;101837;-74
2023/11/02 02:23:08;;;;;;;;;2.00;2.00;;;;;-143.90;100.00;74948.94;4997202;28;103433;-75
2023/11/02 02:25:49;;;;;;;;;2.25;2.00;;;;;-143.90;100.00;74953.09;4992263;28;101597;-75
2023/11/02 02:28:38;;;;;;;;;3.50;1.50;;;;;-143.90;100.00;74959.28;4986774;28;107142;-76
2023/11/02 02:31:20;;;;;;;;;1.00;0.50;;;;;-143.90;100.00;74953.09;4988723;28;101632;-75
2023/11/02 02:34:20;;;;;;;;;0.00;0.00;;;;;-143.90;100.00;74953.09;4990937;28;107992;-76
2023/11/02 02:37:06;;;;;;;;;1.25;1.00;;;;;-143.90;100.00;74961.34;4960216;28;102069;-76
2023/11/02 02:39:38;;;;;;;;;0.00;0.00;;;;;-143.90;100.00;74953.09;4983558;28;101764;-76
2023/11/02 02:42:07;;;;;;;;;2.75;2.00;;;;;-143.90;100.00;74959.28;4985969;28;101713;-74
2023/11/02 02:44:36;;;;;;;;;3.00;3.00;;;;;-143.90;100.00;74969.63;4990033;28;103556;-75
2023/11/02 02:47:05;;;;;;;;;3.75;3.75;;;;;-143.90;100.00;74946.88;4997177;27;102834;-76
2023/11/02 02:49:39;;;;;;;;;6.50;6.00;;;;;-143.90;100.00;74934.47;4997208;28;101766;-75
2023/11/02 02:52:11;;;;;;;;;6.00;4.75;;;;;-143.90;100.00;74936.53;4989622;28;102435;-75
2023/11/02 02:54:44;;;;;;;;;7.00;6.25;;;;;-143.90;100.00;74940.69;4992422;28;107732;-75
2023/11/02 02:57:12;;;;;;;;;6.00;4.00;;;;;-143.90;100.00;74934.47;4993411;27;101797;-75
2023/11/02 02:59:48;;;;;;;;;6.00;3.75;;;;;-143.90;100.00;74934.47;4994391;28;101522;-75
2023/11/02 03:02:16;;;;;;;;;3.75;3.25;;;;;-143.90;100.00;74928.28;4991216;28;101681;-75
2023/11/02 03:04:45;;;;;;;;;5.00;3.00;;;;;-143.90;100.00;74924.13;4995377;27;103503;-75
2023/11/02 03:07:16;;;;;;;;;1.50;1.50;;;;;-143.90;100.00;74926.22;4994295;28;102113;-76
2023/11/02 03:09:50;;;;;;;;;2.00;2.00;;;;;-143.90;100.00;74928.28;4988992;28;101940;-75
2023/11/02 03:12:25;;;;;;;;;4.00;3.00;;;;;-143.90;100.00;74920.00;5003229;28;101980;-76
2023/11/02 03:15:00;;;;;;;;;7.00;2.00;;;;;-143.90;100.00;74915.88;4997204;28;102847;-75
2023/11/02 03:17:58;;;;;;;;;3.00;3.00;;;;;-143.90;100.00;74909.66;4992308;28;102460;-75
2023/11/02 03:20:26;;;;;;;;;3.00;2.00;;;;;-143.90;100.00;74903.47;4994332;27;102231;-75
2023/11/02 03:23:03;;;;;;;;;1.50;1.00;;;;;-143.90;100.00;74905.53;4998452;27;101901;-75
2023/11/02 03:25:50;;;;;;;;;2.00;1.00;;;;;-143.90;100.00;74905.53;4990007;28;103535;-75
2023/11/02 03:28:30;;;;;;;;;1.00;0.50;;;;;-143.90;100.00;74901.41;4988243;27;101810;-76
2023/11/02 03:31:24;;;;;;;;;2.00;1.00;;;;;-143.90;100.00;74899.34;4987830;27;102707;-75
2023/11/02 03:34:04;;;;;;;;;4.00;3.00;;;;;-143.90;100.00;74901.41;4983672;27;106868;-75
2023/11/02 03:36:54;;;;;;;;;3.75;2.75;;;;;-143.90;100.00;74895.19;4998753;27;103949;-75
2023/11/02 03:39:44;;;;;;;;;5.50;3.75;;;;;-143.90;100.00;74891.06;4992170;28;101638;-75
2023/11/02 03:42:25;;;;;;;;;2.00;2.00;;;;;-143.90;100.00;74886.94;4966776;28;101761;-76
2023/11/02 03:45:00;;;;;;;;;3.75;3.00;;;;;-143.90;100.00;74876.59;4992361;27;102637;-76
2023/11/02 03:48:00;;;;;;;;;3.75;3.00;;;;;-143.90;100.00;74870.38;4988883;28;103360;-76
2023/11/02 03:50:59;;;;;;;;;2.50;2.00;;;;;-143.90;100.00;74870.38;4984561;27;101784;-75
2023/11/02 03:53:36;;;;;;;;;4.00;3.25;;;;;-143.90;100.00;74866.25;4990589;27;102110;-75
2023/11/02 03:56:39;;;;;;;;;3.00;2.50;;;;;-143.90;100.00;74864.19;4993443;27;101836;-75
2023/11/02 03:59:13;;;;;;;;;3.00;2.00;;;;;-143.90;100.00;74853.84;4987888;27;108206;-76
2023/11/02 04:01:59;;;;;;;;;5.00;4.00;;;;;-143.90;100.00;74845.59;4989294;28;102129;-75
2023/11/02 04:04:35;;;;;;;;;2.00;2.00;;;;;-143.90;100.00;74841.44;4990619;28;101843;-74
2023/11/02 04:07:24;;;;;;;;;2.00;2.00;;;;;-143.90;100.00;74843.53;4993971;27;102051;-74
2023/11/02 04:09:55;;;;;;;;;4.50;3.00;;;;;-143.90;100.00;74826.97;4987333;27;108201;-75
2023/11/02 04:12:38;;;;;;;;;2.00;1.00;;;;;-143.90;100.00;74810.44;4994742;27;101795;-75
2023/11/02 04:15:08;;;;;;;;;3.00;3.00;;;;;-143.90;100.00;74802.16;4989573;28;101759;-75
2023/11/02 04:17:36;;;;;;;;;1.50;1.50;;;;;-143.90;100.00;74804.25;4997756;28;101828;-75
2023/11/02 04:20:06;;;;;;;;;1.75;1.75;;;;;-143.90;100.00;74789.78;4992607;28;103685;-75
2023/11/02 04:22:32;;;;;;;;;2.75;2.00;;;;;-143.90;100.00;74787.69;4990693;28;101806;-75
2023/11/02 04:24:59;;;;;;;;;1.50;1.50;;;;;-143.90;100.00;74783.56;4991060;28;102234;-75
2023/11/02 04:27:26;;;;;;;;;3.25;2.75;;;;;-143.90;100.00;74777.38;4987267;28;102598;-75
2023/11/02 04:29:53;;;;;;;;;1.50;1.00;;;;;-143.90;100.00;74781.50;4963692;28;103299;-76
2023/11/02 04:32:19;;;;;;;;;3.00;2.75;;;;;-143.90;100.00;74771.16;4987837;27;102240;-75
2023/11/02 04:34:46;;;;;;;;;1.25;1.00;;;;;-143.90;100.00;74760.81;4993109;27;101606;-76
2023/11/02 04:37:16;;;;;;;;;3.00;3.00;;;;;-143.90;100.00;74746.34;4991307;28;102915;-74
2023/11/02 04:39:44;;;;;;;;;2.00;2.00;;;;;-143.90;100.00;74740.16;4990298;27;107786;-73
2023/11/02 04:42:12;;;;;;;;;1.50;1.50;;;;;-143.90;100.00;74727.75;4994551;28;101898;-75
2023/11/02 04:44:38;;;;;;;;;2.75;1.75;;;;;-143.90;100.00;74729.81;4992274;28;101946;-75
2023/11/02 04:47:05;;;;;;;;;1.00;1.00;;;;;-143.90;100.00;74725.69;4990551;28;101982;-74
2023/11/02 04:49:33;;;;;;;;;1.00;1.00;;;;;-143.90;100.00;74729.81;4985380;28;103555;-76
2023/11/02 04:52:02;;;;;;;;;1.00;1.00;;;;;-143.90;100.00;74727.75;4990449;28;102494;-76
2023/11/02 04:54:30;;;;;;;;;0.00;0.00;;;;;-143.90;100.00;74721.56;4977984;28;101740;-75
2023/11/02 04:56:59;;;;;;;;;0.75;0.75;;;;;-143.90;100.00;74721.56;4998838;27;102381;-75
2023/11/02 04:59:25;;;;;;;;;1.75;1.75;;;;;-143.90;100.00;74715.34;4997974;27;103640;-75
2023/11/02 05:01:53;;;;;;;;;2.00;1.00;;;;;-143.90;100.00;74709.16;4984309;28;101931;-75
2023/11/02 05:04:19;;;;;;;;;1.25;0.75;;;;;-143.90;100.00;74696.75;4992820;27;101620;-76
2023/11/02 05:06:50;;;;;;;;;1.00;1.00;;;;;-143.90;100.00;74692.63;4998650;28;101662;-74
2023/11/02 05:09:17;;;;;;;;;0.00;0.00;;;;;-143.90;100.00;74680.22;4989076;28;103711;-74
2023/11/02 05:11:46;;;;;;;;;0.00;0.00;;;;;-143.90;100.00;74678.16;4994533;27;101919;-75
2023/11/02 05:14:13;;;;;;;;;2.75;1.00;;;;;-143.90;100.00;74663.66;5001313;28;102024;-74
2023/11/02 05:16:39;;;;;;;;;1.50;1.50;;;;;-143.90;100.00;74649.19;5006445;27;101640;-76
2023/11/02 05:19:06;;;;;;;;;3.00;3.00;;;;;-143.90;100.00;74638.88;4993751;27;103515;-75
2023/11/02 05:21:32;;;;;;;;;2.00;2.00;;;;;-143.90;100.00;74630.59;5000214;28;101515;-75
2023/11/02 05:23:59;;;;;;;;;4.00;3.00;;;;;-143.90;100.00;74624.41;4999287;28;101712;-75
2023/11/02 05:26:26;;;;;;;;;2.00;1.00;;;;;-143.90;100.00;74622.34;4998192;28;102288;-75
2023/11/02 05:28:52;;;;;;;;;1.50;1.00;;;;;-143.90;100.00;74612.00;4995959;27;103572;-76
2023/11/02 05:31:19;;;;;;;;;0.50;0.00;;;;;-143.90;100.00;74609.94;4998032;27;101684;-76
2023/11/02 05:33:46;;;;;;;;;1.00;1.00;;;;;-143.90;100.00;74597.53;4998312;27;101870;-75
2023/11/02 05:36:13;;;;;;;;;2.25;1.25;;;;;-143.90;100.00;74589.25;4995336;27;101838;-75
2023/11/02 05:38:39;;;;;;;;;0.25;0.00;;;;;-143.90;100.00;74572.72;5002636;28;108047;-75
2023/11/02 05:41:06;;;;;;;;;2.75;2.00;;;;;-143.90;100.00;74560.31;4980738;28;101664;-74
2023/11/02 05:43:34;;;;;;;;;2.50;1.00;;;;;-143.90;100.00;74543.78;4991583;28;102092;-75
2023/11/02 05:46:01;;;;;;;;;1.00;1.00;;;;;-143.90;100.00;74539.66;4976757;28;101750;-75
2023/11/02 05:48:27;;;;;;;;;1.75;1.75;;;;;-143.90;99.93;74514.84;4997662;28;103328;-76
2023/11/02 05:50:54;;;;;;;;;1.00;1.00;;;;;-143.90;99.83;74506.56;4993621;27;103866;-75
2023/11/02 05:53:20;;;;;;;;;2.00;2.00;;;;;-143.90;98.67;74487.97;4986418;27;101768;-74
2023/11/02 05:55:47;;;;;;;;;2.25;2.00;;;;;-143.90;97.85;74477.63;4997782;28;101628;-75
2023/11/02 05:58:14;;;;;;;;;3.75;2.50;;;;;-143.90;97.55;74473.50;4999216;28;103465;-75
2023/11/02 06:00:40;;;;;;;;;3.00;3.00;;;;;-143.90;96.39;74473.50;4995438;28;101833;-75
2023/11/02 06:03:07;;;;;;;;;2.00;2.00;;;;;-143.90;95.57;74477.63;4996922;27;101754;-76
2023/11/02 06:05:34;;;;;;;;;2.00;2.00;;;;;-143.90;96.47;74479.69;4993821;28;101606;-75
2023/11/02 06:08:01;;;;;;;;;3.00;3.00;;;;;-143.90;96.52;74485.91;4994809;28;103516;-76
2023/11/02 06:10:27;;;;;;;;;1.50;1.50;;;;;-143.90;96.27;74492.09;4992089;28;101875;-75
2023/11/02 06:12:54;;;;;;;;;2.00;2.00;;;;;-143.90;96.48;74490.03;4991834;28;101655;-75
2023/11/02 06:15:21;;;;;;;;;2.00;2.00;;;;;-143.90;96.24;74500.38;4988812;28;101905;-76
2023/11/02 06:17:47;;;;;;;;;1.25;1.25;;;;;-143.90;96.44;74506.56;4992950;28;103433;-76
2023/11/02 06:20:14;;;;;;;;;3.00;3.00;;;;;-143.90;96.97;74514.84;4988977;28;102097;-76
2023/11/02 06:22:41;;;;;;;;;1.25;1.25;;;;;-143.90;96.62;74512.78;4997540;27;101910;-76
2023/11/02 06:25:08;;;;;;;;;2.25;2.00;;;;;-143.90;97.11;74527.25;4991703;28;101612;-75
2023/11/02 06:27:34;;;;;;;;;1.75;1.50;;;;;-143.90;97.25;74518.97;4997346;28;103382;-76
2023/11/02 06:30:01;;;;;;;;;3.00;3.00;;;;;-143.90;96.92;74527.25;4998399;28;101810;-76
2023/11/02 06:32:28;;;;;;;;;2.00;2.00;;;;;-143.90;97.59;74523.09;4991848;27;101960;-75
2023/11/02 06:34:54;;;;;;;;;2.00;1.00;;;;;-143.90;96.52;74527.25;4995460;28;103431;-76
2023/11/02 06:37:21;;;;;;;;;2.75;1.50;;;;;-143.90;96.22;74514.84;4999512;28;103791;-75
2023/11/02 06:39:48;;;;;;;;;2.00;2.00;;;;;-143.90;95.55;74510.72;4992456;28;101771;-74
2023/11/02 06:42:15;;;;;;;;;2.25;2.00;;;;;-143.90;95.45;74514.84;4991831;28;102222;-72
2023/11/02 06:44:43;;;;;;;;;2.00;2.00;;;;;-143.90;96.29;74514.84;5001691;27;101626;-75
2023/11/02 06:47:11;;;;;;;;;2.00;2.00;;;;;-143.90;96.80;74523.09;4988508;28;112024;-75
2023/11/02 06:49:38;;;;;;;;;3.00;1.75;;;;;-143.90;96.57;74521.03;4993558;27;101875;-75
2023/11/02 06:52:05;;;;;;;;;1.75;1.75;;;;;-143.90;97.07;74514.84;4993271;28;101941;-76
2023/11/02 06:54:32;;;;;;;;;3.00;2.00;;;;;-143.90;96.97;74527.25;4985335;28;101922;-75
2023/11/02 06:57:01;;;;;;;;;3.50;2.00;;;;;-143.90;97.39;74518.97;4989382;28;103727;-74
2023/11/02 06:59:27;;;;;;;;;2.25;2.25;;;;;-143.90;98.16;74533.44;4993844;27;102021;-76
2023/11/02 07:01:54;;;;;;;;;3.00;3.00;;;;;-143.90;98.21;74541.72;4993808;28;101820;-76
2023/11/02 07:04:21;;;;;;;;;4.00;2.75;;;;;-143.90;97.80;74529.31;4997575;28;101757;-75
2023/11/02 07:06:47;;;;;;;;;4.50;4.00;;;;;-143.90;98.23;74529.31;4975532;28;103495;-75
2023/11/02 07:09:15;;;;;;;;;6.00;4.00;;;;;-143.90;98.55;74531.38;4999723;28;105662;-76
2023/11/02 07:11:42;;;;;;;;;3.25;3.25;;;;;-143.90;98.90;74529.31;4996870;27;101834;-76
2023/11/02 07:14:09;;;;;;;;;4.25;3.50;;;;;-143.90;99.58;74523.09;4995593;27;102093;-76
2023/11/02 07:16:36;;;;;;;;;4.00;3.25;;;;;-143.90;99.56;74523.09;4988129;27;105084;-77
2023/11/02 07:19:02;;;;;;;;;4.50;4.00;;;;;-143.90;99.48;74504.50;4993543;27;101907;-76
2023/11/02 07:21:29;;;;;;;;;2.00;2.00;;;;;-143.90;99.82;74494.16;4989765;28;107636;-77
2023/11/02 07:23:56;;;;;;;;;2.00;2.00;;;;;-143.90;99.08;74473.50;4994209;28;102433;-74
2023/11/02 07:26:23;;;;;;;;;3.25;2.25;;;;;-143.90;98.65;74448.69;4976278;28;103367;-75
2023/11/02 07:28:49;;;;;;;;;3.25;3.25;;;;;-143.90;96.99;74428.03;4997115;28;101667;-75
2023/11/02 07:31:16;;;;;;;;;4.00;3.00;;;;;-143.90;95.60;74380.47;4988251;28;102116;-75
2023/11/02 07:33:43;;;;;;;;;3.00;2.75;;;;;-143.90;95.14;74349.47;4981155;28;102493;-75
2023/11/02 07:36:14;;;;;;;;;2.75;2.75;;;;;-143.90;93.37;74316.41;4992902;28;109597;-75
2023/11/02 07:38:51;;;;;;;;;2.25;2.00;;;;;-143.90;92.90;74299.88;4989719;28;102566;-76
2023/11/02 07:41:20;;;;;;;;;2.50;2.25;;;;;-143.90;91.54;74285.41;4988526;28;103138;-76
2023/11/02 07:43:47;;;;;;;;;4.00;4.00;;;;;-143.90;91.44;74285.41;4997033;28;101609;-76
2023/11/02 07:46:13;;;;;;;;;3.25;3.00;;;;;-143.90;91.95;74287.47;4993973;28;103570;-75
2023/11/02 07:48:40;;;;;;;;;3.00;2.00;;;;;-143.90;91.13;74275.06;4973121;28;101601;-76
2023/11/02 07:51:07;;;;;;;;;2.00;1.25;;;;;-143.90;90.01;74260.59;4992652;28;101990;-75
2023/11/02 07:53:34;;;;;;;;;4.00;2.00;;;;;-143.90;90.64;74250.25;4994857;28;101798;-74
2023/11/02 07:56:00;;;;;;;;;2.00;1.75;;;;;-143.90;90.60;74242.00;4988522;28;104637;-75
2023/11/02 07:58:27;;;;;;;;;1.00;1.00;;;;;-143.90;88.67;74233.72;4992659;28;102324;-73
2023/11/02 08:00:53;;;;;;;;;2.00;2.00;;;;;-143.90;89.54;74229.59;4983653;27;103398;-75
2023/11/02 08:03:21;;;;;;;;;3.00;3.00;;;;;-143.90;89.16;74229.59;4975547;28;102644;-74
2023/11/02 08:05:48;;;;;;;;;1.75;1.00;;;;;-143.90;89.42;74215.13;4984814;28;104573;-75
2023/11/02 08:08:14;;;;;;;;;2.25;2.00;;;;;-143.90;89.36;74208.94;4990543;28;102084;-76
2023/11/02 08:10:41;;;;;;;;;3.25;2.75;;;;;-143.90;87.53;74208.94;4992496;27;102030;-75
2023/11/02 08:13:08;;;;;;;;;3.00;2.25;;;;;-143.90;88.68;74200.66;4988790;28;101989;-75
2023/11/02 08:15:34;;;;;;;;;3.00;1.25;;;;;-143.90;88.03;74190.31;4994599;27;103656;-75
2023/11/02 08:18:02;;;;;;;;;2.00;2.00;;;;;-143.90;88.31;74177.94;4994585;27;101753;-74
2023/11/02 08:20:28;;;;;;;;;3.00;2.00;;;;;-143.90;88.31;74167.59;4968595;27;101938;-74
2023/11/02 08:22:55;;;;;;;;;2.50;2.50;;;;;-143.90;89.11;74128.31;4985798;28;105182;-75
2023/11/02 08:25:21;;;;;;;;;3.00;2.50;;;;;-143.90;85.54;74099.38;4990548;27;103471;-75
2023/11/02 08:27:56;;;;;;;;;3.00;3.00;;;;;-143.90;85.84;74068.38;4987672;27;101924;-76
2023/11/02 08:30:24;;;;;;;;;2.00;2.00;;;;;-143.90;85.69;74031.19;4985371;27;101610;-76
2023/11/02 08:32:52;;;;;;;;;1.00;1.00;;;;;-143.90;85.69;74010.50;4986239;28;103557;-75
2023/11/02 08:35:21;;;;;;;;;2.00;1.50;;;;;-143.90;83.63;73989.84;4985097;28;103308;-76
2023/11/02 08:37:49;;;;;;;;;2.00;2.00;;;;;-143.90;84.22;73973.31;4986550;27;101724;-76
2023/11/02 08:40:21;;;;;;;;;4.50;4.50;;;;;-143.90;82.46;73956.78;4988575;28;103027;-75
2023/11/02 08:42:49;;;;;;;;;3.00;3.00;;;;;-143.90;82.37;73936.09;4988208;27;102287;-74
2023/11/02 08:45:17;;;;;;;;;2.50;2.00;;;;;-143.90;83.57;73911.31;4992360;28;103506;-74
2023/11/02 08:47:44;;;;;;;;;2.75;2.00;;;;;-143.90;80.90;73890.63;4990587;28;102065;-76
2023/11/02 08:50:12;;;;;;;;;4.00;4.00;;;;;-143.90;81.57;73872.03;4998973;28;101568;-75
2023/11/02 08:52:40;;;;;;;;;3.00;2.25;;;;;-143.90;81.62;73857.56;4992077;28;101699;-75
2023/11/02 08:55:07;;;;;;;;;5.00;3.00;;;;;-143.90;79.61;73836.91;4995486;27;103496;-76
2023/11/02 08:57:35;;;;;;;;;5.25;3.00;;;;;-143.90;80.06;73816.25;4992980;27;101522;-76
2023/11/02 09:00:05;;;;;;;;;3.00;2.25;;;;;-143.90;79.28;73781.09;4988483;27;101752;-76
2023/11/02 09:02:32;;;;;;;;;2.00;2.00;;;;;-143.90;79.28;73762.50;4986699;28;102978;-75
2023/11/02 09:04:59;;;;;;;;;5.00;4.00;;;;;-143.90;76.28;73748.03;4992540;28;103390;-75
2023/11/02 09:07:28;;;;;;;;;3.50;3.00;;;;;-143.90;73.76;73725.31;4992781;28;102013;-77
2023/11/02 09:09:55;;;;;;;;;3.00;1.50;;;;;-143.90;74.56;73694.31;4986877;28;101781;-76
2023/11/02 09:12:22;;;;;;;;;1.00;1.00;;;;;-143.90;73.54;73692.25;4999126;27;102861;-75
2023/11/02 09:14:48;;;;;;;;;1.50;1.00;;;;;-143.90;70.38;73696.38;4989077;28;104359;-76
2023/11/02 09:17:15;;;;;;;;;1.75;1.75;;;;;-143.90;71.71;73681.91;4994505;28;101736;-77
2023/11/02 09:19:42;;;;;;;;;1.25;1.25;;;;;-143.90;73.87;73648.84;4989170;28;101640;-76
2023/11/02 09:22:08;;;;;;;;;1.00;1.00;;;;;-143.90;70.51;73626.09;4994241;28;101689;-79
2023/11/02 09:24:35;;;;;;;;;1.67;1.00;;;;;-143.90;68.05;73607.50;4986731;28;103320;-75
2023/11/02 09:27:02;;;;;;;;;1.00;1.00;;;;;-143.90;69.26;73593.03;4984397;28;102709;-77
2023/11/02 09:29:28;;;;;;;;;1.00;1.00;;;;;-143.90;65.89;73570.31;4989653;27;102249;-76
2023/11/02 09:31:55;;;;;;;;;0.67;0.67;;;;;-143.90;67.10;73564.09;4992035;28;101534;-77
2023/11/02 09:34:30;;;;;;;;;0.00;0.00;;;;;-143.90;63.57;73535.19;4991406;28;103350;-76
2023/11/02 09:36:58;;;;;;;;;1.00;1.00;;;;;-143.90;61.58;73514.50;4992059;28;101942;-76
2023/11/02 09:39:24;;;;;;;;;0.00;0.00;;;;;-143.90;63.78;73504.19;4984920;28;102087;-77
2023/11/02 09:41:51;;;;;;;;;1.00;0.00;;;;;-143.90;59.57;73489.72;4994500;28;101796;-77
2023/11/02 09:44:18;;;;;;;;;1.00;1.00;;;;;-143.90;57.75;73493.84;4992960;28;103538;-75
2023/11/02 09:46:45;;;;;;;;;1.00;1.00;;;;;-143.90;59.18;73485.56;4993620;28;101878;-76
2023/11/02 09:49:12;;;;;;;;;2.00;1.00;;;;;-143.90;56.07;73483.50;4984155;28;103263;-77
2023/11/02 09:51:40;;;;;;;;;1.00;1.00;;;;;-143.90;57.99;73477.31;4989003;27;101912;-77
2023/11/02 09:54:06;;;;;;;;;2.00;1.67;;;;;-143.90;56.93;73475.25;4998485;28;103518;-76
2023/11/02 09:56:34;;;;;;;;;1.00;1.00;;;;;-143.90;57.42;73469.03;4992919;28;101617;-77
2023/11/02 09:59:03;;;;;;;;;0.00;0.00;;;;;-143.90;56.11;73456.66;4989760;27;104903;-76
2023/11/02 10:01:30;;;;;;;;;1.00;1.00;;;;;-143.90;55.26;73448.38;4985339;28;102194;-77
2023/11/02 10:03:57;;;;;;;;;1.67;1.67;;;;;-143.90;56.62;73431.84;4989829;28;103649;-77
2023/11/02 10:06:24;;;;;;;;;1.00;1.00;;;;;-143.90;53.90;73423.59;4988508;28;101513;-76
2023/11/02 10:08:51;;;;;;;;;1.00;1.00;;;;;-143.90;54.81;73402.91;4988678;28;104382;-77
2023/11/02 10:11:19;;;;;;;;;2.00;1.67;;;;;-143.90;54.78;73402.91;4997121;27;101987;-75
2023/11/02 10:13:50;;;;;;;;;2.00;1.00;;;;;-143.90;55.38;73398.78;4989779;28;103510;-74
2023/11/02 10:16:24;;;;;;;;;1.00;1.00;;;;;-143.90;55.57;73380.19;4989251;28;102161;-74
2023/11/02 10:18:51;;;;;;;;;2.00;1.00;;;;;-143.90;54.55;73357.47;4991374;27;105929;-76
2023/11/02 10:21:19;;;;;;;;;2.00;1.00;;;;;-143.90;52.89;73353.31;4993274;28;102063;-76
2023/11/02 10:23:49;;;;;;;;;1.33;1.00;;;;;-143.90;53.66;73345.06;4988002;28;103336;-73
2023/11/02 10:26:15;;;;;;;;;0.00;0.00;;;;;-143.90;54.38;73332.66;5003866;27;101888;-77
2023/11/02 10:28:43;;;;;;;;;1.00;1.00;;;;;-143.90;53.21;73318.19;4991317;27;102763;-76
2023/11/02 10:31:10;;;;;;;;;1.00;1.00;;;;;-143.90;53.80;73320.25;4985773;27;102317;-75
2023/11/02 10:33:37;;;;;;;;;2.00;2.00;;;;;-143.90;54.10;73303.72;4992476;27;103561;-75
2023/11/02 10:36:05;;;;;;;;;1.00;1.00;;;;;-143.90;52.56;73287.19;4991583;28;101525;-76
2023/11/02 10:38:33;;;;;;;;;1.67;1.67;;;;;-143.90;52.93;73283.06;4986232;28;102019;-77
2023/11/02 10:41:00;;;;;;;;;0.33;0.33;;;;;-143.90;49.19;73276.88;4988681;28;101686;-75
2023/11/02 10:43:27;;;;;;;;;1.67;1.00;;;;;-143.90;49.66;73268.59;4999495;27;104840;-75
2023/11/02 10:45:54;;;;;;;;;1.00;1.00;;;;;-143.90;50.21;73245.88;4992105;28;101949;-75
2023/11/02 10:48:21;;;;;;;;;2.00;1.00;;;;;-143.90;51.01;73241.75;4984448;28;108021;-75
2023/11/02 10:50:56;;;;;;;;;1.33;1.33;;;;;-143.90;48.69;73233.47;4991844;27;101797;-74
2023/11/02 10:53:53;;;;;;;;;2.00;1.33;;;;;-143.90;49.41;73216.94;4990952;27;103655;-75
2023/11/02 10:56:21;;;;;;;;;1.00;0.33;;;;;-143.90;48.63;73225.19;4984171;27;101774;-75
2023/11/02 10:58:51;;;;;;;;;0.00;0.00;;;;;-143.90;47.40;73216.94;4991721;27;101696;-75
2023/11/02 11:01:19;;;;;;;;;1.00;1.00;;;;;-143.90;48.39;73206.59;4991652;28;102198;-75
2023/11/02 11:03:50;;;;;;;;;1.33;1.33;;;;;-143.90;46.26;73202.47;4992301;28;103529;-75
2023/11/02 11:06:20;;;;;;;;;2.00;1.00;;;;;-143.90;45.73;73208.69;4993851;27;103203;-74
2023/11/02 11:08:48;;;;;;;;;0.00;0.00;;;;;-143.90;45.55;73212.81;4993742;28;102895;-74
2023/11/02 11:11:17;;;;;;;;;1.00;0.00;;;;;-143.90;46.44;73206.59;4993170;27;102001;-76
2023/11/02 11:13:45;;;;;;;;;0.00;0.00;;;;;-143.90;46.78;73202.47;4990873;28;107820;-76
2023/11/02 11:16:14;;;;;;;;;0.00;0.00;;;;;-143.90;46.26;73179.75;4990824;27;103251;-77
2023/11/02 11:18:41;;;;;;;;;1.00;0.33;;;;;-143.90;47.09;73169.41;4988638;28;101683;-75
2023/11/02 11:21:09;;;;;;;;;0.00;0.00;;;;;-143.90;45.59;73148.75;4990347;28;102335;-76